Terminal Aerodrome Forecast
Issued by NWS Omaha/Valley, NE

Home | Current Version | Previous Version | Text Only | Print | Product List | Glossary On
Versions: 1 2 3 4 5 6 7 8 9 10 11 12 13 14 15 16 17 18 19 20 21 22 23 24 25 26 27 28 29 30 31 32 33
000
FTUS43 KOAX 030705 AAA
TAFLNK
TAF AMD
KLNK 030705Z 0307/0406 15012KT P6SM SCT080 BKN150 WS020/19040KT
      TEMPO 0309/0311 VRB20G35KT 2SM TSRA BR OVC025CB
     FM031100 35010KT P6SM -RA BKN025
     FM031300 VRB04KT P6SM BKN015
     FM031500 16008KT P6SM OVC015
     FM031700 16013KT P6SM BKN040=

USA.gov is the U.S. government's official web portal to all federal, state and local government web resources and services.